sensor_id;sensor_type;location;lat;lon;timestamp;temperature;humidity
60033;DHT22;45905;50.570;10.428;2024-03-25T00:00:35;4.10;99.90
60033;DHT22;45905;50.570;10.428;2024-03-25T00:03:01;4.20;99.90
60033;DHT22;45905;50.570;10.428;2024-03-25T00:05:28;4.10;99.90
60033;DHT22;45905;50.570;10.428;2024-03-25T00:07:55;9.30;99.90
60033;DHT22;45905;50.570;10.428;2024-03-25T00:10:21;4.20;99.90
60033;DHT22;45905;50.570;10.428;2024-03-25T00:12:48;4.70;99.90
60033;DHT22;45905;50.570;10.428;2024-03-25T00:15:19;4.20;99.90
60033;DHT22;45905;50.570;10.428;2024-03-25T00:17:47;4.20;99.90
60033;DHT22;45905;50.570;10.428;2024-03-25T00:20:13;4.30;99.90
60033;DHT22;45905;50.570;10.428;2024-03-25T00:22:41;3.90;99.90
60033;DHT22;45905;50.570;10.428;2024-03-25T00:25:08;4.20;99.90
60033;DHT22;45905;50.570;10.428;2024-03-25T00:27:35;4.30;99.90
60033;DHT22;45905;50.570;10.428;2024-03-25T00:30:01;4.30;99.90
60033;DHT22;45905;50.570;10.428;2024-03-25T00:32:28;4.00;99.90
60033;DHT22;45905;50.570;10.428;2024-03-25T00:34:54;4.10;99.90
60033;DHT22;45905;50.570;10.428;2024-03-25T00:37:21;4.30;99.90
60033;DHT22;45905;50.570;10.428;2024-03-25T00:39:48;4.10;99.90
60033;DHT22;45905;50.570;10.428;2024-03-25T00:42:14;4.90;99.90
60033;DHT22;45905;50.570;10.428;2024-03-25T00:44:41;4.00;99.90
60033;DHT22;45905;50.570;10.428;2024-03-25T00:47:07;4.20;99.90
60033;DHT22;45905;50.570;10.428;2024-03-25T00:49:34;4.20;99.90
60033;DHT22;45905;50.570;10.428;2024-03-25T00:52:00;4.10;99.90
60033;DHT22;45905;50.570;10.428;2024-03-25T00:54:28;4.00;99.90
60033;DHT22;45905;50.570;10.428;2024-03-25T00:56:54;4.10;99.90
60033;DHT22;45905;50.570;10.428;2024-03-25T00:59:21;4.10;99.90
60033;DHT22;45905;50.570;10.428;2024-03-25T01:01:47;4.40;99.90
60033;DHT22;45905;50.570;10.428;2024-03-25T01:04:14;4.00;99.90
60033;DHT22;45905;50.570;10.428;2024-03-25T01:06:40;4.00;99.90
60033;DHT22;45905;50.570;10.428;2024-03-25T01:09:08;4.20;99.90
60033;DHT22;45905;50.570;10.428;2024-03-25T01:11:36;4.00;99.90
60033;DHT22;45905;50.570;10.428;2024-03-25T01:14:02;4.20;99.90
60033;DHT22;45905;50.570;10.428;2024-03-25T01:16:28;3.80;99.90
60033;DHT22;45905;50.570;10.428;2024-03-25T01:18:55;3.90;99.90
60033;DHT22;45905;50.570;10.428;2024-03-25T01:21:21;4.00;99.90
60033;DHT22;45905;50.570;10.428;2024-03-25T01:23:48;4.10;99.90
60033;DHT22;45905;50.570;10.428;2024-03-25T01:26:14;4.10;99.90
60033;DHT22;45905;50.570;10.428;2024-03-25T01:28:41;4.10;99.90
60033;DHT22;45905;50.570;10.428;2024-03-25T01:31:07;4.30;99.90
60033;DHT22;45905;50.570;10.428;2024-03-25T01:33:34;3.80;99.90
60033;DHT22;45905;50.570;10.428;2024-03-25T01:36:01;4.10;99.90
60033;DHT22;45905;50.570;10.428;2024-03-25T01:38:27;4.20;99.90
60033;DHT22;45905;50.570;10.428;2024-03-25T01:40:54;4.20;99.90
60033;DHT22;45905;50.570;10.428;2024-03-25T01:43:22;4.20;99.90
60033;DHT22;45905;50.570;10.428;2024-03-25T01:45:50;4.20;99.90
60033;DHT22;45905;50.570;10.428;2024-03-25T01:48:19;4.10;99.90
60033;DHT22;45905;50.570;10.428;2024-03-25T01:50:46;4.10;99.90
60033;DHT22;45905;50.570;10.428;2024-03-25T01:53:13;4.00;99.90
60033;DHT22;45905;50.570;10.428;2024-03-25T01:55:41;4.10;99.90
60033;DHT22;45905;50.570;10.428;2024-03-25T01:58:09;4.20;99.90
60033;DHT22;45905;50.570;10.428;2024-03-25T02:00:35;4.00;99.90
60033;DHT22;45905;50.570;10.428;2024-03-25T02:03:04;4.10;99.90
60033;DHT22;45905;50.570;10.428;2024-03-25T02:05:32;4.20;99.90
60033;DHT22;45905;50.570;10.428;2024-03-25T02:08:01;4.20;99.90
60033;DHT22;45905;50.570;10.428;2024-03-25T02:10:29;4.20;99.90
60033;DHT22;45905;50.570;10.428;2024-03-25T02:12:56;4.10;99.90
60033;DHT22;45905;50.570;10.428;2024-03-25T02:15:22;4.00;99.90
60033;DHT22;45905;50.570;10.428;2024-03-25T02:17:49;4.20;99.90
60033;DHT22;45905;50.570;10.428;2024-03-25T02:20:15;4.10;99.90
60033;DHT22;45905;50.570;10.428;2024-03-25T02:22:41;4.50;99.90
60033;DHT22;45905;50.570;10.428;2024-03-25T02:25:09;4.00;99.90
60033;DHT22;45905;50.570;10.428;2024-03-25T02:27:39;3.90;99.90
60033;DHT22;45905;50.570;10.428;2024-03-25T02:30:09;4.00;99.90
60033;DHT22;45905;50.570;10.428;2024-03-25T02:32:39;4.00;99.90
60033;DHT22;45905;50.570;10.428;2024-03-25T02:35:16;4.40;99.90
60033;DHT22;45905;50.570;10.428;2024-03-25T02:37:43;4.20;99.90
60033;DHT22;45905;50.570;10.428;2024-03-25T02:40:09;4.20;99.90
60033;DHT22;45905;50.570;10.428;2024-03-25T02:42:38;3.60;99.90
60033;DHT22;45905;50.570;10.428;2024-03-25T02:45:06;4.10;99.90
60033;DHT22;45905;50.570;10.428;2024-03-25T02:47:33;4.10;99.90
60033;DHT22;45905;50.570;10.428;2024-03-25T02:49:59;4.10;99.90
60033;DHT22;45905;50.570;10.428;2024-03-25T02:52:27;4.00;99.90
60033;DHT22;45905;50.570;10.428;2024-03-25T02:54:53;3.90;99.90
60033;DHT22;45905;50.570;10.428;2024-03-25T02:57:23;4.10;99.90
60033;DHT22;45905;50.570;10.428;2024-03-25T02:59:49;4.10;99.90
60033;DHT22;45905;50.570;10.428;2024-03-25T03:02:16;4.00;99.90
60033;DHT22;45905;50.570;10.428;2024-03-25T03:04:42;4.30;99.90
60033;DHT22;45905;50.570;10.428;2024-03-25T03:07:08;4.10;99.90
60033;DHT22;45905;50.570;10.428;2024-03-25T03:09:35;3.90;99.90
60033;DHT22;45905;50.570;10.428;2024-03-25T03:12:01;4.10;99.90
60033;DHT22;45905;50.570;10.428;2024-03-25T03:14:28;4.10;99.90
60033;DHT22;45905;50.570;10.428;2024-03-25T03:16:54;4.00;99.90
60033;DHT22;45905;50.570;10.428;2024-03-25T03:19:25;4.20;99.90
60033;DHT22;45905;50.570;10.428;2024-03-25T03:21:52;4.10;99.90
60033;DHT22;45905;50.570;10.428;2024-03-25T03:24:20;4.10;99.90
60033;DHT22;45905;50.570;10.428;2024-03-25T03:26:46;4.00;99.90
60033;DHT22;45905;50.570;10.428;2024-03-25T03:29:12;4.10;99.90
60033;DHT22;45905;50.570;10.428;2024-03-25T03:31:39;3.90;99.90
60033;DHT22;45905;50.570;10.428;2024-03-25T03:34:05;4.00;99.90
60033;DHT22;45905;50.570;10.428;2024-03-25T03:36:32;4.00;99.90
60033;DHT22;45905;50.570;10.428;2024-03-25T03:38:58;3.90;99.90
60033;DHT22;45905;50.570;10.428;2024-03-25T03:41:24;3.90;99.90
60033;DHT22;45905;50.570;10.428;2024-03-25T03:43:51;4.60;99.90
60033;DHT22;45905;50.570;10.428;2024-03-25T03:46:17;3.80;99.90
60033;DHT22;45905;50.570;10.428;2024-03-25T03:48:44;3.90;99.90
60033;DHT22;45905;50.570;10.428;2024-03-25T03:51:10;4.10;99.90
60033;DHT22;45905;50.570;10.428;2024-03-25T03:53:37;3.90;99.90
60033;DHT22;45905;50.570;10.428;2024-03-25T03:56:04;4.00;99.90
60033;DHT22;45905;50.570;10.428;2024-03-25T03:58:34;4.00;99.90
60033;DHT22;45905;50.570;10.428;2024-03-25T04:01:01;4.00;99.90
60033;DHT22;45905;50.570;10.428;2024-03-25T04:03:28;3.90;99.90
60033;DHT22;45905;50.570;10.428;2024-03-25T04:05:55;3.70;99.90
60033;DHT22;45905;50.570;10.428;2024-03-25T04:08:21;4.10;99.90
60033;DHT22;45905;50.570;10.428;2024-03-25T04:10:48;4.00;99.90
60033;DHT22;45905;50.570;10.428;2024-03-25T04:13:15;4.00;99.90
60033;DHT22;45905;50.570;10.428;2024-03-25T04:15:43;4.00;99.90
60033;DHT22;45905;50.570;10.428;2024-03-25T04:18:09;4.00;99.90
60033;DHT22;45905;50.570;10.428;2024-03-25T04:20:40;4.00;99.90
60033;DHT22;45905;50.570;10.428;2024-03-25T04:23:07;3.90;99.90
60033;DHT22;45905;50.570;10.428;2024-03-25T04:25:34;3.90;99.90
60033;DHT22;45905;50.570;10.428;2024-03-25T04:28:04;4.10;99.90
60033;DHT22;45905;50.570;10.428;2024-03-25T04:30:34;4.10;99.90
60033;DHT22;45905;50.570;10.428;2024-03-25T04:33:00;3.80;99.90
60033;DHT22;45905;50.570;10.428;2024-03-25T04:35:27;3.90;99.90
60033;DHT22;45905;50.570;10.428;2024-03-25T04:37:54;4.00;99.90
60033;DHT22;45905;50.570;10.428;2024-03-25T04:40:21;3.90;99.90
60033;DHT22;45905;50.570;10.428;2024-03-25T04:42:48;3.90;99.90
60033;DHT22;45905;50.570;10.428;2024-03-25T04:45:15;4.10;99.90
60033;DHT22;45905;50.570;10.428;2024-03-25T04:47:41;4.00;99.90
60033;DHT22;45905;50.570;10.428;2024-03-25T04:50:08;4.00;99.90
60033;DHT22;45905;50.570;10.428;2024-03-25T04:52:35;3.90;99.90
60033;DHT22;45905;50.570;10.428;2024-03-25T04:55:02;3.90;99.90
60033;DHT22;45905;50.570;10.428;2024-03-25T04:57:28;3.90;99.90
60033;DHT22;45905;50.570;10.428;2024-03-25T04:59:54;3.90;99.90
60033;DHT22;45905;50.570;10.428;2024-03-25T05:02:20;3.90;99.90
60033;DHT22;45905;50.570;10.428;2024-03-25T05:04:47;3.90;99.90
60033;DHT22;45905;50.570;10.428;2024-03-25T05:07:13;3.90;99.90
60033;DHT22;45905;50.570;10.428;2024-03-25T05:09:40;4.00;99.90
60033;DHT22;45905;50.570;10.428;2024-03-25T05:12:06;4.30;99.90
60033;DHT22;45905;50.570;10.428;2024-03-25T05:14:33;3.80;99.90
60033;DHT22;45905;50.570;10.428;2024-03-25T05:16:59;3.90;99.90
60033;DHT22;45905;50.570;10.428;2024-03-25T05:19:27;3.90;99.90
60033;DHT22;45905;50.570;10.428;2024-03-25T05:21:54;4.00;99.90
60033;DHT22;45905;50.570;10.428;2024-03-25T05:24:20;3.90;99.90
60033;DHT22;45905;50.570;10.428;2024-03-25T05:26:47;3.90;99.90
60033;DHT22;45905;50.570;10.428;2024-03-25T05:29:13;3.70;99.90
60033;DHT22;45905;50.570;10.428;2024-03-25T05:31:39;3.60;99.90
60033;DHT22;45905;50.570;10.428;2024-03-25T05:34:23;5.30;99.90
60033;DHT22;45905;50.570;10.428;2024-03-25T05:36:50;4.00;99.90
60033;DHT22;45905;50.570;10.428;2024-03-25T05:39:16;5.00;99.90
60033;DHT22;45905;50.570;10.428;2024-03-25T05:41:43;4.00;99.90
60033;DHT22;45905;50.570;10.428;2024-03-25T05:44:09;3.90;99.90
60033;DHT22;45905;50.570;10.428;2024-03-25T05:46:35;3.90;99.90
60033;DHT22;45905;50.570;10.428;2024-03-25T05:49:05;4.00;99.90
60033;DHT22;45905;50.570;10.428;2024-03-25T05:51:32;4.00;99.90
60033;DHT22;45905;50.570;10.428;2024-03-25T05:53:59;3.60;99.90
60033;DHT22;45905;50.570;10.428;2024-03-25T05:56:27;4.30;99.90
60033;DHT22;45905;50.570;10.428;2024-03-25T05:59:00;4.30;99.90
60033;DHT22;45905;50.570;10.428;2024-03-25T06:01:27;4.10;99.90
60033;DHT22;45905;50.570;10.428;2024-03-25T06:03:53;4.00;99.90
60033;DHT22;45905;50.570;10.428;2024-03-25T06:06:20;4.20;99.90
60033;DHT22;45905;50.570;10.428;2024-03-25T06:08:47;4.00;99.90
60033;DHT22;45905;50.570;10.428;2024-03-25T06:11:14;3.80;99.90
60033;DHT22;45905;50.570;10.428;2024-03-25T06:13:40;4.00;99.90
60033;DHT22;45905;50.570;10.428;2024-03-25T06:16:06;4.00;99.90
60033;DHT22;45905;50.570;10.428;2024-03-25T06:18:33;4.00;99.90
60033;DHT22;45905;50.570;10.428;2024-03-25T06:20:59;3.80;99.90
60033;DHT22;45905;50.570;10.428;2024-03-25T06:23:29;4.00;99.90
60033;DHT22;45905;50.570;10.428;2024-03-25T06:25:56;3.90;99.90
60033;DHT22;45905;50.570;10.428;2024-03-25T06:28:22;4.10;99.90
60033;DHT22;45905;50.570;10.428;2024-03-25T06:30:50;4.30;99.90
60033;DHT22;45905;50.570;10.428;2024-03-25T06:33:36;3.90;99.90
60033;DHT22;45905;50.570;10.428;2024-03-25T06:36:22;4.00;99.90
60033;DHT22;45905;50.570;10.428;2024-03-25T06:38:48;3.80;99.90
60033;DHT22;45905;50.570;10.428;2024-03-25T06:41:15;4.20;99.90
60033;DHT22;45905;50.570;10.428;2024-03-25T06:43:42;4.20;99.90
60033;DHT22;45905;50.570;10.428;2024-03-25T06:46:09;4.40;99.90
60033;DHT22;45905;50.570;10.428;2024-03-25T06:48:35;4.30;99.90
60033;DHT22;45905;50.570;10.428;2024-03-25T06:51:04;4.20;99.90
60033;DHT22;45905;50.570;10.428;2024-03-25T06:53:30;4.20;99.90
60033;DHT22;45905;50.570;10.428;2024-03-25T06:55:58;4.50;99.90
60033;DHT22;45905;50.570;10.428;2024-03-25T06:58:26;4.30;99.90
60033;DHT22;45905;50.570;10.428;2024-03-25T07:00:55;4.20;99.90
60033;DHT22;45905;50.570;10.428;2024-03-25T07:03:23;4.30;99.90
60033;DHT22;45905;50.570;10.428;2024-03-25T07:05:51;4.20;99.90
60033;DHT22;45905;50.570;10.428;2024-03-25T07:08:23;4.40;99.90
60033;DHT22;45905;50.570;10.428;2024-03-25T07:10:49;4.50;99.90
60033;DHT22;45905;50.570;10.428;2024-03-25T07:13:15;4.30;99.90
60033;DHT22;45905;50.570;10.428;2024-03-25T07:15:43;4.40;99.90
60033;DHT22;45905;50.570;10.428;2024-03-25T07:18:10;4.40;99.90
60033;DHT22;45905;50.570;10.428;2024-03-25T07:20:43;4.50;99.90
60033;DHT22;45905;50.570;10.428;2024-03-25T07:23:10;4.10;99.90
60033;DHT22;45905;50.570;10.428;2024-03-25T07:25:37;4.30;99.90
60033;DHT22;45905;50.570;10.428;2024-03-25T07:28:06;4.30;99.90
60033;DHT22;45905;50.570;10.428;2024-03-25T07:30:34;4.30;99.90
60033;DHT22;45905;50.570;10.428;2024-03-25T07:33:01;4.30;99.90
60033;DHT22;45905;50.570;10.428;2024-03-25T07:35:27;4.30;99.90
60033;DHT22;45905;50.570;10.428;2024-03-25T07:37:53;4.40;99.90
60033;DHT22;45905;50.570;10.428;2024-03-25T07:40:23;4.30;99.90
60033;DHT22;45905;50.570;10.428;2024-03-25T07:42:49;4.40;99.90
60033;DHT22;45905;50.570;10.428;2024-03-25T07:45:16;4.50;99.90
60033;DHT22;45905;50.570;10.428;2024-03-25T07:47:43;4.40;99.90
60033;DHT22;45905;50.570;10.428;2024-03-25T07:50:11;4.60;99.90
60033;DHT22;45905;50.570;10.428;2024-03-25T07:52:37;4.40;99.90
60033;DHT22;45905;50.570;10.428;2024-03-25T07:55:07;4.30;99.90
60033;DHT22;45905;50.570;10.428;2024-03-25T07:57:34;5.10;99.90
60033;DHT22;45905;50.570;10.428;2024-03-25T08:00:00;4.00;99.90
60033;DHT22;45905;50.570;10.428;2024-03-25T08:02:27;4.30;99.90
60033;DHT22;45905;50.570;10.428;2024-03-25T08:04:53;4.30;99.90
60033;DHT22;45905;50.570;10.428;2024-03-25T08:07:20;4.20;99.90
60033;DHT22;45905;50.570;10.428;2024-03-25T08:09:46;4.40;99.90
60033;DHT22;45905;50.570;10.428;2024-03-25T08:12:12;4.70;99.90
60033;DHT22;45905;50.570;10.428;2024-03-25T08:14:39;4.60;99.90
60033;DHT22;45905;50.570;10.428;2024-03-25T08:17:05;4.60;99.90
60033;DHT22;45905;50.570;10.428;2024-03-25T08:19:31;4.50;99.90
60033;DHT22;45905;50.570;10.428;2024-03-25T08:21:58;4.30;99.90
60033;DHT22;45905;50.570;10.428;2024-03-25T08:24:24;4.90;99.90
60033;DHT22;45905;50.570;10.428;2024-03-25T08:26:50;4.90;99.90
60033;DHT22;45905;50.570;10.428;2024-03-25T08:29:16;4.80;99.90
60033;DHT22;45905;50.570;10.428;2024-03-25T08:31:43;4.90;99.90
60033;DHT22;45905;50.570;10.428;2024-03-25T08:34:09;4.80;99.90
60033;DHT22;45905;50.570;10.428;2024-03-25T08:36:36;4.80;99.90
60033;DHT22;45905;50.570;10.428;2024-03-25T08:39:02;4.80;99.90
60033;DHT22;45905;50.570;10.428;2024-03-25T08:41:30;5.00;99.90
60033;DHT22;45905;50.570;10.428;2024-03-25T08:43:56;5.00;99.90
60033;DHT22;45905;50.570;10.428;2024-03-25T08:46:22;5.20;99.90
60033;DHT22;45905;50.570;10.428;2024-03-25T08:48:49;5.30;99.90
60033;DHT22;45905;50.570;10.428;2024-03-25T08:51:16;5.30;99.90
60033;DHT22;45905;50.570;10.428;2024-03-25T08:53:42;5.40;99.90
60033;DHT22;45905;50.570;10.428;2024-03-25T08:56:09;5.50;99.90
60033;DHT22;45905;50.570;10.428;2024-03-25T08:58:36;5.40;99.90
60033;DHT22;45905;50.570;10.428;2024-03-25T09:01:03;5.90;99.90
60033;DHT22;45905;50.570;10.428;2024-03-25T09:03:29;5.50;99.90
60033;DHT22;45905;50.570;10.428;2024-03-25T09:05:55;5.50;99.90
60033;DHT22;45905;50.570;10.428;2024-03-25T09:08:22;5.70;99.90
60033;DHT22;45905;50.570;10.428;2024-03-25T09:10:48;5.30;99.90
60033;DHT22;45905;50.570;10.428;2024-03-25T09:13:30;5.50;99.90
60033;DHT22;45905;50.570;10.428;2024-03-25T09:15:57;5.40;99.90
60033;DHT22;45905;50.570;10.428;2024-03-25T09:18:24;5.50;99.90
60033;DHT22;45905;50.570;10.428;2024-03-25T09:20:52;5.70;99.90
60033;DHT22;45905;50.570;10.428;2024-03-25T09:23:19;5.60;99.90
60033;DHT22;45905;50.570;10.428;2024-03-25T09:25:52;6.60;99.90
60033;DHT22;45905;50.570;10.428;2024-03-25T09:28:21;6.70;99.90
60033;DHT22;45905;50.570;10.428;2024-03-25T09:30:48;5.70;99.90
60033;DHT22;45905;50.570;10.428;2024-03-25T09:33:15;5.50;99.90
60033;DHT22;45905;50.570;10.428;2024-03-25T09:35:42;6.10;99.90
60033;DHT22;45905;50.570;10.428;2024-03-25T09:38:08;6.10;99.90
60033;DHT22;45905;50.570;10.428;2024-03-25T09:40:40;5.90;99.90
60033;DHT22;45905;50.570;10.428;2024-03-25T09:43:27;6.40;99.90
60033;DHT22;45905;50.570;10.428;2024-03-25T09:46:02;6.00;99.90
60033;DHT22;45905;50.570;10.428;2024-03-25T09:48:30;6.00;99.90
60033;DHT22;45905;50.570;10.428;2024-03-25T09:50:58;5.40;99.90
60033;DHT22;45905;50.570;10.428;2024-03-25T09:53:25;5.80;99.90
60033;DHT22;45905;50.570;10.428;2024-03-25T09:55:51;6.10;99.90
60033;DHT22;45905;50.570;10.428;2024-03-25T09:58:19;6.10;99.90
60033;DHT22;45905;50.570;10.428;2024-03-25T10:00:46;6.10;99.90
60033;DHT22;45905;50.570;10.428;2024-03-25T10:03:13;5.90;99.90
60033;DHT22;45905;50.570;10.428;2024-03-25T10:05:40;5.70;99.90
60033;DHT22;45905;50.570;10.428;2024-03-25T10:08:07;6.30;99.90
60033;DHT22;45905;50.570;10.428;2024-03-25T10:10:36;5.80;99.90
60033;DHT22;45905;50.570;10.428;2024-03-25T10:13:06;5.60;99.90
60033;DHT22;45905;50.570;10.428;2024-03-25T10:15:33;6.10;99.90
60033;DHT22;45905;50.570;10.428;2024-03-25T10:17:59;6.40;99.90
60033;DHT22;45905;50.570;10.428;2024-03-25T10:20:26;6.30;99.90
60033;DHT22;45905;50.570;10.428;2024-03-25T10:22:52;6.40;99.90
60033;DHT22;45905;50.570;10.428;2024-03-25T10:25:27;6.30;99.90
60033;DHT22;45905;50.570;10.428;2024-03-25T10:28:02;6.40;99.90
60033;DHT22;45905;50.570;10.428;2024-03-25T10:30:29;8.20;99.90
60033;DHT22;45905;50.570;10.428;2024-03-25T10:35:28;6.70;99.90
60033;DHT22;45905;50.570;10.428;2024-03-25T10:38:00;6.50;99.90
60033;DHT22;45905;50.570;10.428;2024-03-25T10:40:32;6.60;99.90
60033;DHT22;45905;50.570;10.428;2024-03-25T10:43:10;6.60;99.90
60033;DHT22;45905;50.570;10.428;2024-03-25T10:45:45;6.60;99.90
60033;DHT22;45905;50.570;10.428;2024-03-25T10:49:01;6.70;99.90
60033;DHT22;45905;50.570;10.428;2024-03-25T10:51:23;6.90;99.90
60033;DHT22;45905;50.570;10.428;2024-03-25T10:53:54;6.60;99.90
60033;DHT22;45905;50.570;10.428;2024-03-25T10:56:23;6.50;99.90
60033;DHT22;45905;50.570;10.428;2024-03-25T11:01:19;7.40;99.90
60033;DHT22;45905;50.570;10.428;2024-03-25T11:03:46;6.80;99.90
60033;DHT22;45905;50.570;10.428;2024-03-25T11:06:14;7.20;99.90
60033;DHT22;45905;50.570;10.428;2024-03-25T11:08:42;7.20;99.90
60033;DHT22;45905;50.570;10.428;2024-03-25T11:11:13;7.10;99.90
60033;DHT22;45905;50.570;10.428;2024-03-25T11:13:41;7.30;99.80
60033;DHT22;45905;50.570;10.428;2024-03-25T11:16:09;7.40;99.90
60033;DHT22;45905;50.570;10.428;2024-03-25T11:18:36;7.20;99.90
60033;DHT22;45905;50.570;10.428;2024-03-25T11:21:06;10.60;99.90
60033;DHT22;45905;50.570;10.428;2024-03-25T11:23:41;7.70;99.90
60033;DHT22;45905;50.570;10.428;2024-03-25T11:26:26;8.00;99.90
60033;DHT22;45905;50.570;10.428;2024-03-25T11:31:26;7.80;98.50
60033;DHT22;45905;50.570;10.428;2024-03-25T11:33:53;9.40;99.90
60033;DHT22;45905;50.570;10.428;2024-03-25T11:36:21;7.80;99.70
60033;DHT22;45905;50.570;10.428;2024-03-25T11:39:00;7.80;99.90
60033;DHT22;45905;50.570;10.428;2024-03-25T11:41:33;7.90;99.90
60033;DHT22;45905;50.570;10.428;2024-03-25T11:44:01;7.60;99.50
60033;DHT22;45905;50.570;10.428;2024-03-25T11:48:54;8.00;99.90
60033;DHT22;45905;50.570;10.428;2024-03-25T11:51:21;9.90;99.90
60033;DHT22;45905;50.570;10.428;2024-03-25T11:56:17;7.10;99.50
60033;DHT22;45905;50.570;10.428;2024-03-25T11:58:45;7.50;98.60
60033;DHT22;45905;50.570;10.428;2024-03-25T12:01:12;7.80;99.20
60033;DHT22;45905;50.570;10.428;2024-03-25T12:06:09;7.70;99.50
60033;DHT22;45905;50.570;10.428;2024-03-25T12:08:36;7.70;99.90
60033;DHT22;45905;50.570;10.428;2024-03-25T12:13:44;7.80;99.10
60033;DHT22;45905;50.570;10.428;2024-03-25T12:16:10;8.00;97.10
60033;DHT22;45905;50.570;10.428;2024-03-25T12:18:40;8.10;97.80
60033;DHT22;45905;50.570;10.428;2024-03-25T12:21:15;7.80;98.20
60033;DHT22;45905;50.570;10.428;2024-03-25T12:23:42;8.30;98.00
60033;DHT22;45905;50.570;10.428;2024-03-25T12:26:08;8.30;99.70
60033;DHT22;45905;50.570;10.428;2024-03-25T12:28:35;8.60;99.40
60033;DHT22;45905;50.570;10.428;2024-03-25T12:31:07;8.60;98.00
60033;DHT22;45905;50.570;10.428;2024-03-25T12:33:44;8.70;97.60
60033;DHT22;45905;50.570;10.428;2024-03-25T12:36:13;8.50;97.30
60033;DHT22;45905;50.570;10.428;2024-03-25T12:41:08;8.40;97.90
60033;DHT22;45905;50.570;10.428;2024-03-25T12:43:45;8.70;97.40
60033;DHT22;45905;50.570;10.428;2024-03-25T12:46:11;8.50;97.30
60033;DHT22;45905;50.570;10.428;2024-03-25T12:48:38;8.30;97.30
60033;DHT22;45905;50.570;10.428;2024-03-25T12:51:13;8.80;96.70
60033;DHT22;45905;50.570;10.428;2024-03-25T12:53:41;8.80;97.50
60033;DHT22;45905;50.570;10.428;2024-03-25T12:56:08;8.80;97.20
60033;DHT22;45905;50.570;10.428;2024-03-25T13:03:28;9.10;97.60
60033;DHT22;45905;50.570;10.428;2024-03-25T13:08:24;9.30;97.70
60033;DHT22;45905;50.570;10.428;2024-03-25T13:10:51;9.30;98.00
60033;DHT22;45905;50.570;10.428;2024-03-25T13:13:17;9.50;98.50
60033;DHT22;45905;50.570;10.428;2024-03-25T13:15:44;9.50;98.00
60033;DHT22;45905;50.570;10.428;2024-03-25T13:18:11;9.10;96.00
60033;DHT22;45905;50.570;10.428;2024-03-25T13:20:37;9.60;97.00
60033;DHT22;45905;50.570;10.428;2024-03-25T13:23:03;9.40;97.30
60033;DHT22;45905;50.570;10.428;2024-03-25T13:25:29;9.10;97.20
60033;DHT22;45905;50.570;10.428;2024-03-25T13:27:56;9.70;96.40
60033;DHT22;45905;50.570;10.428;2024-03-25T13:30:22;9.60;96.40
60033;DHT22;45905;50.570;10.428;2024-03-25T13:32:52;9.60;96.00
60033;DHT22;45905;50.570;10.428;2024-03-25T13:35:19;9.60;97.00
60033;DHT22;45905;50.570;10.428;2024-03-25T13:37:45;9.70;97.30
60033;DHT22;45905;50.570;10.428;2024-03-25T13:40:12;9.50;96.60
60033;DHT22;45905;50.570;10.428;2024-03-25T13:42:38;9.70;96.80
60033;DHT22;45905;50.570;10.428;2024-03-25T13:45:05;10.00;95.70
60033;DHT22;45905;50.570;10.428;2024-03-25T13:47:32;9.90;97.00
60033;DHT22;45905;50.570;10.428;2024-03-25T13:50:05;9.90;96.30
60033;DHT22;45905;50.570;10.428;2024-03-25T13:52:35;9.80;97.10
60033;DHT22;45905;50.570;10.428;2024-03-25T13:55:02;10.00;96.80
60033;DHT22;45905;50.570;10.428;2024-03-25T13:57:29;10.30;96.60
60033;DHT22;45905;50.570;10.428;2024-03-25T13:59:56;10.30;96.50
60033;DHT22;45905;50.570;10.428;2024-03-25T14:02:23;10.60;96.10
60033;DHT22;45905;50.570;10.428;2024-03-25T14:04:50;10.50;95.80
60033;DHT22;45905;50.570;10.428;2024-03-25T14:07:17;10.60;95.20
60033;DHT22;45905;50.570;10.428;2024-03-25T14:13:03;10.60;95.60
60033;DHT22;45905;50.570;10.428;2024-03-25T14:16:45;10.60;94.90
60033;DHT22;45905;50.570;10.428;2024-03-25T14:19:13;10.70;94.70
60033;DHT22;45905;50.570;10.428;2024-03-25T14:21:39;10.50;95.10
60033;DHT22;45905;50.570;10.428;2024-03-25T14:24:06;10.90;95.10
60033;DHT22;45905;50.570;10.428;2024-03-25T14:26:33;10.70;94.70
60033;DHT22;45905;50.570;10.428;2024-03-25T14:29:00;10.70;95.20
60033;DHT22;45905;50.570;10.428;2024-03-25T14:31:27;10.70;94.20
60033;DHT22;45905;50.570;10.428;2024-03-25T14:33:58;10.60;92.10
60033;DHT22;45905;50.570;10.428;2024-03-25T14:36:26;10.40;93.10
60033;DHT22;45905;50.570;10.428;2024-03-25T14:38:52;10.50;94.40
60033;DHT22;45905;50.570;10.428;2024-03-25T14:41:19;10.40;94.40
60033;DHT22;45905;50.570;10.428;2024-03-25T14:43:46;9.70;95.40
60033;DHT22;45905;50.570;10.428;2024-03-25T14:46:14;10.40;94.20
60033;DHT22;45905;50.570;10.428;2024-03-25T14:48:41;10.50;94.00
60033;DHT22;45905;50.570;10.428;2024-03-25T14:54:33;10.50;94.10
60033;DHT22;45905;50.570;10.428;2024-03-25T14:57:01;10.90;94.30
60033;DHT22;45905;50.570;10.428;2024-03-25T14:59:28;10.70;94.50
60033;DHT22;45905;50.570;10.428;2024-03-25T15:01:59;11.30;94.30
60033;DHT22;45905;50.570;10.428;2024-03-25T15:04:29;11.30;94.70
60033;DHT22;45905;50.570;10.428;2024-03-25T15:06:59;11.00;94.30
60033;DHT22;45905;50.570;10.428;2024-03-25T15:09:25;11.40;93.90
60033;DHT22;45905;50.570;10.428;2024-03-25T15:11:52;11.10;92.20
60033;DHT22;45905;50.570;10.428;2024-03-25T15:14:18;11.10;93.30
60033;DHT22;45905;50.570;10.428;2024-03-25T15:16:44;11.20;93.40
60033;DHT22;45905;50.570;10.428;2024-03-25T15:19:11;10.90;93.80
60033;DHT22;45905;50.570;10.428;2024-03-25T15:21:37;11.30;92.90
60033;DHT22;45905;50.570;10.428;2024-03-25T15:24:03;11.40;93.20
60033;DHT22;45905;50.570;10.428;2024-03-25T15:26:30;11.60;93.50
60033;DHT22;45905;50.570;10.428;2024-03-25T15:28:56;11.40;92.10
60033;DHT22;45905;50.570;10.428;2024-03-25T15:31:23;11.60;93.20
60033;DHT22;45905;50.570;10.428;2024-03-25T15:33:49;11.60;92.50
60033;DHT22;45905;50.570;10.428;2024-03-25T15:36:15;11.60;91.70
60033;DHT22;45905;50.570;10.428;2024-03-25T15:38:42;11.40;91.70
60033;DHT22;45905;50.570;10.428;2024-03-25T15:41:08;11.40;91.10
60033;DHT22;45905;50.570;10.428;2024-03-25T15:43:34;11.50;90.80
60033;DHT22;45905;50.570;10.428;2024-03-25T15:46:01;11.30;91.60
60033;DHT22;45905;50.570;10.428;2024-03-25T15:48:29;11.40;91.60
60033;DHT22;45905;50.570;10.428;2024-03-25T15:50:56;11.50;93.20
60033;DHT22;45905;50.570;10.428;2024-03-25T15:53:22;11.60;92.90
60033;DHT22;45905;50.570;10.428;2024-03-25T15:55:50;11.80;93.40
60033;DHT22;45905;50.570;10.428;2024-03-25T15:58:19;11.70;91.60
60033;DHT22;45905;50.570;10.428;2024-03-25T16:00:46;11.70;91.60
60033;DHT22;45905;50.570;10.428;2024-03-25T16:03:12;11.70;91.00
60033;DHT22;45905;50.570;10.428;2024-03-25T16:05:39;11.80;92.30
60033;DHT22;45905;50.570;10.428;2024-03-25T16:08:06;11.70;92.40